Latest Weather Observations for Urandangi

IDQ60801

Issued at 7:42 am EST Friday 22 October 2021 (issued every 10 minutes, with the page automatically refreshed every 10 minutes)

About weather observations | Map of weather stations | Latest weather observations for QLD | Other Formats
Station Details ID: 037058 Name: URANDANGI AERODROME Lat: -21.60 Lon: 138.37 Height: 178.6 m
Data from the previous 72 hours. | See also: Recent months at Urandangi
Date/Time
EST
Temp
°C
App
Temp
°C
Dew
Point
°C
Rel
Hum
%
Delta-T
°C
Wind Press
QNH
hPa
Press
MSL
hPa
Rain since
9am
mm
Dir  Spd
km/h
Gust
km/h
Spd
kts
Gust
kts
22/07:30am 27.3 29.8 17.2 54 6.4 CALM 0 0 0 0 1012.2 1011.2 0.0
22/07:00am 25.1 27.3 16.5 59 5.3 CALM 0 0 0 0 1011.8 1010.9 0.0
22/06:30am 23.0 24.7 15.3 62 4.6 CALM 0 0 0 0 1011.3 1010.4 0.0
22/06:00am 23.0 24.7 15.3 62 4.6 CALM 0 0 0 0 1010.9 1009.9 0.0
22/05:30am 23.2 24.2 15.3 61 4.8 SW 4 4 2 2 1010.8 1009.8 0.0
22/05:00am 23.5 24.2 15.5 60 4.8 SW 6 6 3 3 1010.8 1009.8 0.0
22/04:30am 23.7 24.3 15.2 59 5.1 SW 6 6 3 3 1010.5 1009.5 0.0
22/04:00am 24.5 25.2 15.7 58 5.4 W 6 7 3 4 1010.2 1009.2 0.0
22/03:30am 25.0 26.5 15.6 56 5.7 NNW 2 4 1 2 1010.1 1009.1 0.0
22/03:00am 26.3 26.7 16.3 54 6.2 N 9 11 5 6 1009.9 1008.9 0.0
22/02:30am 26.6 27.0 16.2 52 6.4 N 9 11 5 6 1010.1 1009.1 0.0
22/02:00am 27.5 28.8 16.1 49 7.1 NNW 4 6 2 3 1010.6 1009.6 0.0
22/01:30am 28.3 29.4 16.6 49 7.3 WNW 6 7 3 4 1010.8 1009.8 0.0
22/01:00am 28.6 29.6 16.8 48 7.4 WSW 7 13 4 7 1010.7 1009.7 0.0
22/12:30am 29.1 26.6 17.0 48 7.7 N 26 33 14 18 1009.8 1008.8 0.0
22/12:00am 29.8 27.8 17.3 47 8.0 N 24 32 13 17 1009.8 1008.8 0.0
 
Date/Time
EST
Temp
°C
App
Temp
°C
Dew
Point
°C
Rel
Hum
%
Delta-T
°C
Wind Press
QNH
hPa
Press
MSL
hPa
Rain since
9am
mm
Dir  Spd
km/h
Gust
km/h
Spd
kts
Gust
kts
21/11:30pm 30.3 28.8 16.7 44 8.6 N 20 28 11 15 1010.1 1009.1 0.0
21/11:00pm 30.8 29.2 16.0 40 9.3 N 19 26 10 14 1010.0 1009.0 0.0
21/10:30pm 30.7 29.3 15.5 39 9.5 N 17 19 9 10 1009.8 1008.8 0.0
21/10:00pm 31.6 30.4 15.1 36 10.2 N 15 19 8 10 1009.7 1008.7 0.0
21/09:30pm 32.5 30.9 15.1 35 10.8 N 17 22 9 12 1009.4 1008.4 0.0
21/09:00pm 33.0 31.8 15.0 33 11.2 N 15 20 8 11 1009.0 1008.0 0.0
21/08:30pm 33.1 32.0 14.2 32 11.6 N 13 15 7 8 1008.7 1007.7 0.0
21/08:00pm 33.2 32.7 13.8 31 11.9 N 9 11 5 6 1008.3 1007.3 0.0
21/07:30pm 34.3 33.8 13.7 29 12.6 N 9 13 5 7 1007.9 1006.9 0.0
21/07:00pm 35.4 34.4 13.5 26 13.5 N 11 15 6 8 1007.4 1006.4 0.0
21/06:30pm 36.3 36.3 13.7 25 14.0 NW 6 9 3 5 1006.9 1005.9 0.0
21/06:00pm 36.9 36.3 13.6 24 14.4 W 9 13 5 7 1006.4 1005.4 0.0
21/05:30pm 37.1 37.0 13.8 25 14.5 NNW 7 13 4 7 1006.2 1005.1 0.0
21/05:00pm 37.3 36.5 14.0 25 14.5 NNW 11 17 6 9 1005.9 1004.9 0.0
21/04:30pm 37.2 35.4 14.5 26 14.2 NNW 17 32 9 17 1005.7 1004.7 0.0
21/04:00pm 37.1 34.9 14.4 26 14.2 NNW 19 28 10 15 1005.8 1004.8 0.0
21/03:30pm 37.5 35.6 14.1 24 14.6 NNW 17 26 9 14 1006.3 1005.2 0.0
21/03:00pm 38.0 35.6 13.9 24 15.1 N 19 35 10 19 1006.6 1005.6 0.0
21/02:30pm 37.3 33.6 14.0 25 14.5 N 26 35 14 19 1007.0 1006.0 0.0
21/02:00pm 37.0 32.3 13.1 24 14.7 N 30 41 16 22 1007.3 1006.3 0.0
21/01:30pm 36.8 32.4 12.9 24 14.6 N 28 39 15 21 1007.5 1006.5 0.0
21/01:00pm 37.3 33.4 13.3 23 14.8 NNE 26 37 14 20 1008.0 1007.0 0.0
21/12:30pm 35.8 31.3 13.9 27 13.6 N 30 39 16 21 1008.4 1007.4 0.0
21/12:00pm 35.1 30.6 13.9 28 13.1 N 30 43 16 23 1009.0 1008.0 0.0
21/11:30am 33.0 29.1 15.5 35 11.0 N 30 43 16 23 1009.3 1008.3 0.0
21/11:00am 31.7 28.3 16.8 40 9.5 NNE 30 41 16 22 1009.7 1008.7 0.0
21/10:30am 29.3 26.0 16.1 44 8.2 NNE 28 46 15 25 1009.7 1008.7 0.0
21/10:00am 30.8 27.2 10.7 29 11.6 N 20 32 11 17 1010.0 1009.0 0.0
21/09:30am 30.8 29.1 11.2 30 11.4 NNE 11 20 6 11 1010.6 1009.6 0.0
21/09:00am 28.6 27.7 12.5 37 9.5 N 9 13 5 7 1010.7 1009.7 0.0
21/08:30am 29.7 28.0 8.2 26 11.9 N 7 11 4 6 1010.6 1009.6 0.0
21/08:00am 29.8 27.9 7.7 25 12.1 NNE 7 11 4 6 1010.2 1009.2 0.0
21/07:30am 29.2 26.5 8.8 28 11.3 NW 13 24 7 13 1009.8 1008.8 0.0
21/07:00am 29.4 26.4 7.9 26 11.8 SE 13 20 7 11 1009.1 1008.1 0.0
21/06:30am 29.8 25.9 7.1 24 12.3 S 17 22 9 12 1008.9 1007.9 0.0
21/06:00am 29.3 25.6 7.8 26 11.8 SSE 17 22 9 12 1008.5 1007.5 0.0
21/05:30am 29.6 25.4 8.1 26 11.8 SSW 20 30 11 16 1008.7 1007.7 0.0
21/05:00am 30.1 25.2 6.7 23 12.7 SW 22 37 12 20 1008.8 1007.8 0.0
21/04:30am 29.1 25.9 9.8 30 10.9 ESE 17 20 9 11 1007.8 1006.8 0.0
21/04:00am 30.9 27.9 6.0 21 13.4 SSE 11 26 6 14 1007.2 1006.2 0.0
21/03:41am 27.3 24.3 9.2 32 10.0 W 15 32 8 17 1006.7 1005.7 0.0
21/03:30am 28.3 26.3 8.6 29 10.9 NNE 9 13 5 7 1005.8 1004.8 0.0
21/03:00am 28.1 25.6 8.4 29 10.9 ENE 11 13 6 7 1005.2 1004.2 0.0
21/02:30am 28.4 26.0 8.7 29 10.9 ENE 11 15 6 8 1005.5 1004.5 0.0
21/02:00am 28.9 26.0 9.6 30 10.9 ENE 15 17 8 9 1005.7 1004.7 0.0
21/01:30am 27.7 26.1 11.7 37 9.3 NE 11 11 6 6 1006.3 1005.2 0.0
21/01:00am 28.5 26.9 11.6 35 9.8 NE 11 13 6 7 1006.6 1005.6 0.0
21/12:30am 31.0 28.3 10.4 28 11.9 NNE 15 19 8 10 1007.2 1006.2 0.0
21/12:00am 30.6 29.4 11.5 30 11.2 ENE 9 13 5 7 1007.3 1006.3 0.0
 
Date/Time
EST
Temp
°C
App
Temp
°C
Dew
Point
°C
Rel
Hum
%
Delta-T
°C
Wind Press
QNH
hPa
Press
MSL
hPa
Rain since
9am
mm
Dir  Spd
km/h
Gust
km/h
Spd
kts
Gust
kts
20/11:30pm 31.7 30.2 12.0 30 11.7 ENE 11 13 6 7 1007.4 1006.4 0.0
20/11:00pm 31.3 31.1 13.1 33 11.0 ENE 6 7 3 4 1007.8 1006.8 0.0
20/10:30pm 31.6 30.6 12.4 31 11.4 NE 9 15 5 8 1007.8 1006.8 0.0
20/10:00pm 30.1 30.9 12.5 34 10.5 CALM 0 0 0 0 1007.7 1006.7 0.0
20/09:30pm 30.9 31.4 12.8 33 10.8 NE 2 4 1 2 1007.6 1006.6 0.0
20/09:00pm 31.5 32.4 12.8 32 11.2 CALM 0 2 0 1 1007.4 1006.4 0.0
20/08:30pm 31.9 32.6 12.2 30 11.7 CALM 0 4 0 2 1007.1 1006.1 0.0
20/08:00pm 32.9 33.3 12.5 29 12.3 S 2 4 1 2 1007.1 1006.1 0.0
20/07:30pm 35.4 35.2 9.0 20 15.2 CALM 0 0 0 0 1007.0 1006.0 0.0
20/07:00pm 37.1 37.0 9.6 19 16.1 CALM 0 0 0 0 1006.9 1005.9 0.0
20/06:30pm 39.4 37.7 5.9 13 18.7 SSW 4 6 2 3 1006.7 1005.7 0.0
20/06:00pm 40.2 37.2 4.1 11 19.8 SW 9 13 5 7 1006.3 1005.2 0.0
20/05:30pm 40.8 37.9 4.6 11 20.0 WSW 9 15 5 8 1006.0 1005.0 0.0
20/05:00pm 41.3 39.0 4.9 11 20.3 WSW 6 11 3 6 1005.8 1004.8 0.0
20/04:30pm 41.0 38.1 4.7 11 20.1 W 9 24 5 13 1005.9 1004.9 0.0
20/04:00pm 40.7 37.6 5.7 12 19.7 W 11 20 6 11 1006.3 1005.2 0.0
20/03:30pm 40.5 38.4 5.6 12 19.5 NNE 6 15 3 8 1006.6 1005.6 0.0
20/03:00pm 40.9 37.8 7.1 13 19.4 NW 13 22 7 12 1007.1 1006.1 0.0
20/02:30pm 40.7 38.0 5.7 12 19.6 WNW 9 20 5 11 1007.6 1006.6 0.0
20/02:00pm 40.0 37.8 5.2 12 19.3 W 6 13 3 7 1008.1 1007.1 0.0
20/01:30pm 41.0 38.2 7.1 13 19.4 N 11 24 6 13 1008.6 1007.6 0.0
20/01:00pm 40.1 37.1 7.5 14 18.7 NNE 13 26 7 14 1009.4 1008.4 0.0
20/12:30pm 39.4 36.5 8.0 15 18.1 NNE 13 22 7 12 1010.0 1009.0 0.0
20/12:00pm 38.6 35.9 7.4 15 17.8 NNE 11 17 6 9 1010.7 1009.7 0.0
20/11:30am 37.5 34.4 7.4 16 17.0 NNE 13 24 7 13 1011.3 1010.4 0.0
20/11:00am 36.4 33.2 8.3 18 16.1 NE 15 22 8 12 1011.8 1010.9 0.0
20/10:30am 36.0 32.3 8.0 18 15.9 NE 17 22 9 12 1012.3 1011.3 0.0
20/10:00am 35.1 31.0 8.0 19 15.3 ENE 19 26 10 14 1012.6 1011.6 0.0
20/09:30am 34.0 30.3 9.3 22 14.2 ENE 19 24 10 13 1012.8 1011.8 0.0
20/09:00am 32.8 30.2 10.8 26 12.9 E 15 22 8 12 1012.8 1011.8 3.2
20/08:30am 30.9 29.4 13.2 34 10.6 ESE 13 17 7 9 1012.6 1011.6 3.2
20/08:00am 28.6 29.0 15.2 44 8.2 ESE 7 11 4 6 1012.5 1011.5 3.2
20/07:30am 25.0 26.3 17.5 63 4.7 ESE 7 9 4 5 1012.5 1011.5 3.2
20/07:00am 22.8 23.8 17.7 73 3.2 ESE 9 9 5 5 1012.5 1011.5 3.2
20/06:30am 21.6 22.7 17.0 75 2.8 E 7 7 4 4 1012.2 1011.2 3.2
20/06:00am 21.5 22.6 16.7 74 2.9 ESE 6 9 3 5 1011.7 1010.8 3.2
20/05:30am 21.9 23.7 17.3 75 2.9 SE 4 6 2 3 1011.7 1010.8 3.2
20/05:00am 21.3 22.4 18.1 82 2.0 SSE 9 9 5 5 1011.4 1010.5 3.2
20/04:30am 22.0 24.6 19.2 84 1.8 S 4 6 2 3 1011.2 1010.2 3.2
20/04:00am 22.3 24.6 19.5 84 1.8 SSE 6 6 3 3 1011.2 1010.2 3.2
20/03:30am 23.4 26.9 20.3 83 2.0 SSE 2 4 1 2 1011.3 1010.4 3.2
20/03:00am 24.1 26.6 19.0 73 3.3 SSW 4 6 2 3 1011.3 1010.4 3.2
20/02:30am 24.3 27.6 19.1 73 3.3 CALM 0 2 0 1 1011.4 1010.5 3.2
20/02:00am 24.9 28.1 18.8 69 3.9 CALM 0 4 0 2 1011.4 1010.5 3.2
20/01:30am 25.4 27.2 18.3 64 4.5 NNE 6 7 3 4 1011.7 1010.8 3.2
20/01:00am 25.8 27.3 18.0 62 5.0 NNE 7 7 4 4 1011.8 1010.9 3.2
20/12:30am 26.1 27.4 18.5 63 4.9 N 9 9 5 5 1012.4 1011.4 3.2
20/12:00am 26.3 29.5 18.9 63 4.8 CALM 0 0 0 0 1012.7 1011.7 3.2
 
Date/Time
EST
Temp
°C
App
Temp
°C
Dew
Point
°C
Rel
Hum
%
Delta-T
°C
Wind Press
QNH
hPa
Press
MSL
hPa
Rain since
9am
mm
Dir  Spd
km/h
Gust
km/h
Spd
kts
Gust
kts
19/11:30pm 27.4 28.7 17.0 53 6.5 ENE 6 6 3 3 1012.8 1011.8 3.2
19/11:00pm 27.2 27.8 17.7 56 6.0 E 11 13 6 7 1013.0 1012.0 3.2
19/10:30pm 27.5 29.3 17.4 54 6.4 SSE 4 6 2 3 1013.6 1012.6 3.2
19/10:00pm 28.4 28.0 16.3 47 7.6 ESE 13 17 7 9 1013.2 1012.2 3.2
19/09:30pm 28.3 27.3 16.6 49 7.3 ESE 17 20 9 11 1013.2 1012.2 3.2
19/09:00pm 26.8 25.9 18.1 59 5.6 ESE 20 24 11 13 1013.0 1012.0 3.2
19/08:30pm 25.9 27.5 20.0 70 3.9 SE 11 13 6 7 1013.6 1012.6 3.2
19/08:00pm 24.5 25.6 19.6 74 3.2 S 13 20 7 11 1014.5 1013.5 3.2
19/07:42pm 23.3 15.9 17.3 69 3.7 SSW 52 78 28 42 1014.7 1013.7 2.6
19/07:39pm 24.3 15.9 16.6 62 4.8 SSW 56 78 30 42 1014.6 1013.6 1.4
19/07:32pm 30.4 24.1 14.5 38 9.7 WSW 41 78 22 42 1013.2 1012.2 0.0
19/07:30pm 31.4 26.5 13.6 33 10.8 W 32 61 17 33 1012.8 1011.8 0.0
19/07:26pm 36.0 33.4 9.5 20 15.4 WNW 13 59 7 32 1012.2 1011.2 0.0
19/07:00pm 36.3 34.8 9.0 19 15.8 NE 7 9 4 5 1009.8 1008.8 0.0
19/06:30pm 37.4 35.7 8.2 17 16.7 ENE 7 9 4 5 1009.4 1008.4 0.0
19/06:00pm 38.3 35.4 8.1 16 17.4 NE 13 15 7 8 1008.8 1007.8 0.0
19/05:30pm 39.0 36.0 7.7 15 17.9 ENE 13 17 7 9 1008.6 1007.6 0.0
19/05:00pm 39.2 36.6 7.8 15 18.1 NE 11 17 6 9 1008.4 1007.4 0.0
19/04:30pm 39.0 37.4 8.6 16 17.6 ENE 7 17 4 9 1008.6 1007.6 0.0
19/04:00pm 39.5 37.7 8.1 15 18.2 ESE 7 15 4 8 1008.9 1007.9 0.0
19/03:30pm 40.0 38.5 8.5 15 18.3 WNW 6 13 3 7 1009.2 1008.2 0.0
19/03:00pm 39.0 36.4 7.7 15 17.9 ESE 11 20 6 11 1009.7 1008.7 0.0
19/02:30pm 40.2 37.8 8.6 15 18.4 NW 11 20 6 11 1010.0 1009.0 0.0
19/02:00pm 39.1 37.1 8.7 16 17.7 WNW 9 19 5 10 1010.6 1009.6 0.0
19/01:30pm 38.7 37.9 10.9 19 16.7 NW 6 13 3 7 1011.4 1010.5 0.0
19/01:00pm 38.1 37.3 11.2 20 16.2 WNW 6 15 3 8 1012.2 1011.2 0.0
19/12:30pm 37.6 36.4 11.5 21 15.7 W 9 20 5 11 1012.5 1011.5 0.0
19/12:00pm 37.7 35.7 11.6 21 15.7 NW 13 22 7 12 1013.0 1012.0 0.0
19/11:30am 36.6 34.2 12.8 24 14.5 NW 17 24 9 13 1013.3 1012.3 0.0
19/11:00am 36.2 33.5 13.0 24 14.2 NW 19 26 10 14 1013.7 1012.7 0.0
19/10:30am 34.8 33.3 13.0 26 13.3 NW 13 22 7 12 1014.0 1013.0 0.0
19/10:00am 33.6 32.3 13.6 29 12.2 NW 13 17 7 9 1014.4 1013.4 0.0
19/09:30am 31.6 29.6 13.8 33 10.8 NW 17 24 9 13 1014.5 1013.5 0.0
19/09:00am 30.6 29.2 13.4 35 10.4 NW 13 22 7 12 1014.6 1013.6 0.6
19/08:30am 28.9 27.7 13.9 39 9.0 NNW 13 17 7 9 1014.5 1013.5 0.6
19/08:00am 27.6 27.5 13.9 43 8.2 NNW 7 13 4 7 1014.1 1013.1 0.6

Other formats

Comma delimited format used in spreadsheet applications
http://www.bom.gov.au/fwo/IDQ60801/IDQ60801.94344.axf

JavaScript Object Notation format (JSON) in row-major order
http://www.bom.gov.au/fwo/IDQ60801/IDQ60801.94344.json

Data quality

Most of these data are generated automatically and are frequently updated. Quality checks on data are not normally performed. It is possible for incorrect values to appear. Refer to information at About Latest Weather Observations and please check the disclaimer before using these data.